Al Jubail, Saudi Arabia
Current Conditions -  °F | °C
As of 11:00 PM on Wednesday 28 Jan 2015 (Local Time) from OEDF Reporting Station
Clear Clear  
Wind Chill: 63°   Ceiling: Unl
Heat Index: 63°   Visibility: 6mi
Dew Point: 45°   Wind: 13mph
Humidity: 52%   Direction: 110°ESE
Pressure: 29.97"   Gusts: NA
Location:  27.01754°N, 49.65477°E
Report Text: OEDF 282000Z 11011KT CAVOK 17/07 Q1015 NOSIG
Loading
Personal Weather Stations






























Interactive Weather Map New forecast layout! Learn more

10-Day Weather Forecast

Advertisements
Track Severe Weather on mobile